createdAt,value
2022-11-26T00:02:31.136Z,100932.00
2022-11-26T00:04:59.947Z,100936.38
2022-11-26T00:07:30.610Z,100935.66
2022-11-26T00:09:59.893Z,100954.94
2022-11-26T00:12:31.763Z,100945.47
2022-11-26T00:15:10.362Z,100943.59
2022-11-26T00:17:38.059Z,100946.25
2022-11-26T00:20:07.371Z,100948.84
2022-11-26T00:22:40.668Z,100951.50
2022-11-26T00:25:14.492Z,100953.41
2022-11-26T00:27:42.953Z,100953.41
2022-11-26T00:30:22.893Z,100955.94
2022-11-26T00:32:50.561Z,100956.94
2022-11-26T00:35:19.123Z,100961.25
2022-11-26T00:37:54.823Z,100964.72
2022-11-26T00:40:33.181Z,100957.63
2022-11-26T00:43:02.096Z,100954.22
2022-11-26T00:45:31.531Z,100960.34
2022-11-26T00:47:59.124Z,100961.22
2022-11-26T00:50:28.192Z,100962.13
2022-11-26T00:52:56.928Z,100959.47
2022-11-26T00:55:32.530Z,100954.34
2022-11-26T00:58:00.951Z,100961.22
2022-11-26T01:00:33.921Z,100960.53
2022-11-26T01:03:02.455Z,100959.38
2022-11-26T01:05:33.542Z,100970.59
2022-11-26T01:08:15.544Z,100958.47
2022-11-26T01:10:43.262Z,100968.09
2022-11-26T01:13:11.463Z,100962.91
2022-11-26T01:15:39.024Z,100972.38
2022-11-26T01:18:14.951Z,100976.03
2022-11-26T01:20:43.142Z,100983.94
2022-11-26T01:23:12.929Z,100983.84
2022-11-26T01:25:41.148Z,100982.19
2022-11-26T01:28:15.256Z,100990.97
2022-11-26T01:30:43.410Z,100979.44
2022-11-26T01:33:10.920Z,100983.97
2022-11-26T01:35:38.970Z,100982.25
2022-11-26T01:38:06.498Z,100988.41
2022-11-26T01:41:09.870Z,100990.13
2022-11-26T01:43:44.152Z,100986.69
2022-11-26T01:46:19.962Z,100989.47
2022-11-26T01:48:49.605Z,100985.03
2022-11-26T01:51:21.376Z,100994.00
2022-11-26T01:53:56.804Z,100986.00
2022-11-26T01:56:41.062Z,100991.97
2022-11-26T01:59:14.150Z,100993.78
2022-11-26T02:01:42.143Z,100997.41
2022-11-26T02:04:23.657Z,100996.50
2022-11-26T02:06:52.575Z,101003.38
2022-11-26T02:09:20.571Z,101003.28
2022-11-26T02:11:49.892Z,101002.53
2022-11-26T02:14:22.962Z,101004.25
2022-11-26T02:17:08.780Z,101014.69
2022-11-26T02:20:04.518Z,101003.44
2022-11-26T02:22:50.611Z,101010.34
2022-11-26T02:25:46.867Z,101004.31
2022-11-26T02:28:17.182Z,101002.66
2022-11-26T02:30:53.813Z,101006.03
2022-11-26T02:33:41.446Z,100999.88
2022-11-26T02:37:01.598Z,101008.75
2022-11-26T02:39:30.364Z,101008.66
2022-11-26T02:42:02.367Z,101014.72
2022-11-26T02:44:44.934Z,101016.44
2022-11-26T02:47:17.648Z,101008.47
2022-11-26T02:49:48.404Z,101018.84
2022-11-26T02:52:18.750Z,101012.81
2022-11-26T02:54:49.097Z,101018.22
2022-11-26T02:57:21.402Z,101015.06
2022-11-26T02:59:49.293Z,101022.84
2022-11-26T03:02:25.710Z,101022.97
2022-11-26T03:04:56.193Z,101026.47
2022-11-26T03:07:24.224Z,101025.47
2022-11-26T03:09:58.280Z,101024.56
2022-11-26T03:12:26.840Z,101032.47
2022-11-26T03:14:55.317Z,101035.22
2022-11-26T03:17:23.027Z,101036.81
2022-11-26T03:19:51.114Z,101043.81
2022-11-26T03:22:18.621Z,101051.78
2022-11-26T03:24:46.407Z,101049.09
2022-11-26T03:27:13.906Z,101043.13
2022-11-26T03:29:41.438Z,101050.06
2022-11-26T03:32:09.423Z,101054.41
2022-11-26T03:34:37.436Z,101064.78
2022-11-26T03:37:05.134Z,101065.44
2022-11-26T03:39:32.709Z,101059.44
2022-11-26T03:42:00.379Z,101064.94
2022-11-26T03:44:27.866Z,101071.25
2022-11-26T03:46:55.589Z,101066.84
2022-11-26T03:49:23.322Z,101069.53
2022-11-26T03:51:52.442Z,101072.13
2022-11-26T03:54:20.028Z,101077.19
2022-11-26T03:56:47.859Z,101085.06
2022-11-26T03:59:15.411Z,101085.94
2022-11-26T04:01:42.989Z,101095.53
2022-11-26T04:04:10.583Z,101093.84
2022-11-26T04:06:38.360Z,101106.94
2022-11-26T04:09:05.910Z,101103.41
2022-11-26T04:11:33.965Z,101101.59
2022-11-26T04:14:01.990Z,101104.97
2022-11-26T04:16:29.787Z,101102.59
2022-11-26T04:18:57.379Z,101104.47
2022-11-26T04:21:26.391Z,101106.19
2022-11-26T04:23:53.879Z,101120.97
2022-11-26T04:26:21.644Z,101113.91
2022-11-26T04:28:50.695Z,101118.25
2022-11-26T04:31:18.319Z,101117.38
2022-11-26T04:33:47.372Z,101127.00
2022-11-26T04:36:15.053Z,101121.75
2022-11-26T04:38:42.842Z,101128.78
2022-11-26T04:41:10.407Z,101139.28
2022-11-26T04:43:38.863Z,101136.75
2022-11-26T04:46:07.468Z,101140.38
2022-11-26T04:48:36.226Z,101140.31
2022-11-26T04:51:04.022Z,101142.88
2022-11-26T04:53:31.548Z,101150.00
2022-11-26T04:55:59.384Z,101148.28
2022-11-26T04:58:30.266Z,101148.34
2022-11-26T05:00:57.886Z,101154.28
2022-11-26T05:03:25.378Z,101151.66
2022-11-26T05:05:53.127Z,101158.47
2022-11-26T05:08:20.692Z,101151.41
2022-11-26T05:10:53.418Z,101160.09
2022-11-26T05:13:21.005Z,101153.22
2022-11-26T05:15:48.750Z,101153.34
2022-11-26T05:18:16.464Z,101163.00
2022-11-26T05:20:43.974Z,101163.03
2022-11-26T05:23:11.769Z,101162.22
2022-11-26T05:25:39.310Z,101168.41
2022-11-26T05:28:06.788Z,101167.38
2022-11-26T05:30:34.933Z,101182.06
2022-11-26T05:33:02.731Z,101183.78
2022-11-26T05:35:30.734Z,101182.88
2022-11-26T05:37:58.209Z,101188.09
2022-11-26T05:40:26.819Z,101191.72
2022-11-26T05:42:54.363Z,101190.00
2022-11-26T05:45:21.915Z,101199.56
2022-11-26T05:47:49.591Z,101197.84
2022-11-26T05:50:17.901Z,101198.56
2022-11-26T05:52:47.356Z,101196.91
2022-11-26T05:55:16.585Z,101204.81
2022-11-26T05:57:44.436Z,101211.97
2022-11-26T06:00:13.693Z,101213.69
2022-11-26T06:02:42.538Z,101213.72
2022-11-26T06:05:10.763Z,101214.59
2022-11-26T06:07:44.593Z,101210.97
2022-11-26T06:10:13.840Z,101208.44
2022-11-26T06:12:41.675Z,101207.59
2022-11-26T06:15:10.429Z,101215.34
2022-11-26T06:17:37.995Z,101205.81
2022-11-26T06:20:06.599Z,101205.97
2022-11-26T06:22:40.147Z,101217.25
2022-11-26T06:25:10.251Z,101211.06
2022-11-26T06:27:42.723Z,101207.59
2022-11-26T06:30:14.234Z,101212.06
2022-11-26T06:32:41.916Z,101211.19
2022-11-26T06:35:10.073Z,101221.53
2022-11-26T06:37:37.773Z,101220.78
2022-11-26T06:40:05.984Z,101218.03
2022-11-26T06:42:33.812Z,101218.78
2022-11-26T06:45:01.510Z,101223.13
2022-11-26T06:47:29.044Z,101217.94
2022-11-26T06:49:56.607Z,101221.41
2022-11-26T06:52:24.127Z,101230.09
2022-11-26T06:54:51.783Z,101234.47
2022-11-26T06:57:19.333Z,101236.22
2022-11-26T06:59:46.917Z,101230.09
2022-11-26T07:02:14.446Z,101235.31
2022-11-26T07:04:41.979Z,101236.00
2022-11-26T07:07:09.706Z,101242.09
2022-11-26T07:09:39.304Z,101240.19
2022-11-26T07:12:07.563Z,101236.66
2022-11-26T07:14:35.697Z,101244.00
2022-11-26T07:17:03.356Z,101249.34
2022-11-26T07:19:30.865Z,101238.00
2022-11-26T07:21:58.378Z,101245.88
2022-11-26T07:24:26.063Z,101248.34
2022-11-26T07:26:53.856Z,101244.81
2022-11-26T07:29:21.293Z,101250.69
2022-11-26T07:31:49.058Z,101245.63
2022-11-26T07:34:16.836Z,101251.59
2022-11-26T07:36:45.221Z,101249.06
2022-11-26T07:39:12.737Z,101245.47
2022-11-26T07:41:40.405Z,101260.28
2022-11-26T07:44:13.129Z,101255.03
2022-11-26T07:46:44.206Z,101254.06
2022-11-26T07:49:11.893Z,101253.09
2022-11-26T07:51:40.381Z,101254.25
2022-11-26T07:54:08.754Z,101265.94
2022-11-26T07:56:36.717Z,101262.22
2022-11-26T07:59:04.549Z,101262.13
2022-11-26T08:01:33.420Z,101275.25
2022-11-26T08:04:04.250Z,101283.00
2022-11-26T08:06:33.397Z,101273.91
2022-11-26T08:09:02.591Z,101282.59
2022-11-26T08:11:32.753Z,101280.88
2022-11-26T08:14:03.857Z,101272.00
2022-11-26T08:16:32.278Z,101288.53
2022-11-26T08:19:02.581Z,101283.13
2022-11-26T08:21:30.539Z,101277.44
2022-11-26T08:23:58.222Z,101280.09
2022-11-26T08:26:35.888Z,101279.22
2022-11-26T08:29:04.124Z,101289.53
2022-11-26T08:31:32.243Z,101289.59
2022-11-26T08:34:01.030Z,101294.66
2022-11-26T08:36:30.155Z,101296.31
2022-11-26T08:38:59.909Z,101292.22
2022-11-26T08:41:27.650Z,101282.47
2022-11-26T08:44:10.635Z,101292.03
2022-11-26T08:46:40.257Z,101287.78
2022-11-26T08:49:10.633Z,101287.06
2022-11-26T08:51:38.488Z,101280.94
2022-11-26T08:54:07.633Z,101286.81
2022-11-26T08:56:35.339Z,101295.50
2022-11-26T08:59:03.710Z,101293.59
2022-11-26T09:01:33.585Z,101291.66
2022-11-26T09:04:04.253Z,101292.59
2022-11-26T09:06:34.065Z,101292.59
2022-11-26T09:09:14.621Z,101297.06
2022-11-26T09:11:54.043Z,101288.22
2022-11-26T09:14:26.293Z,101293.41
2022-11-26T09:16:59.393Z,101286.50
2022-11-26T09:19:29.710Z,101282.16
2022-11-26T09:22:01.475Z,101281.41
2022-11-26T09:24:29.002Z,101290.84
2022-11-26T09:26:56.530Z,101292.56
2022-11-26T09:29:25.344Z,101287.44
2022-11-26T09:32:23.354Z,101293.59
2022-11-26T09:34:41.980Z,101296.78
2022-11-26T09:37:09.641Z,101299.19
2022-11-26T09:39:37.190Z,101304.28
2022-11-26T09:42:11.925Z,101301.03
2022-11-26T09:44:46.296Z,101299.94
2022-11-26T09:47:43.007Z,101292.16
2022-11-26T09:50:20.438Z,101304.56
2022-11-26T09:52:56.968Z,101299.38
2022-11-26T09:55:28.341Z,101304.72
2022-11-26T09:58:06.160Z,101298.13
2022-11-26T10:00:40.249Z,101304.38
2022-11-26T10:03:25.428Z,101317.56
2022-11-26T10:05:57.060Z,101319.28
2022-11-26T10:08:47.169Z,101316.75
2022-11-26T10:11:33.202Z,101324.53
2022-11-26T10:14:24.968Z,101319.91
2022-11-26T10:17:07.397Z,101321.78
2022-11-26T10:20:02.918Z,101320.06
2022-11-26T10:22:57.138Z,101321.81
2022-11-26T10:25:29.436Z,101318.38
2022-11-26T10:27:59.284Z,101326.97
2022-11-26T10:30:29.513Z,101326.84
2022-11-26T10:33:02.074Z,101322.31
2022-11-26T10:35:30.440Z,101326.66
2022-11-26T10:37:58.726Z,101331.19
2022-11-26T10:40:30.421Z,101334.69
2022-11-26T10:43:08.500Z,101326.06
2022-11-26T10:45:43.866Z,101329.47
2022-11-26T10:48:27.162Z,101333.66
2022-11-26T10:50:59.829Z,101343.31
2022-11-26T10:53:30.266Z,101337.19
2022-11-26T10:56:01.560Z,101337.19
2022-11-26T10:58:33.604Z,101341.59
2022-11-26T11:01:06.033Z,101339.81
2022-11-26T11:04:10.530Z,101336.28
2022-11-26T11:06:42.440Z,101337.91
2022-11-26T11:09:36.221Z,101345.00
2022-11-26T11:12:19.109Z,101346.72
2022-11-26T11:14:50.671Z,101344.88
2022-11-26T11:17:36.306Z,101353.00
2022-11-26T11:20:27.572Z,101349.63
2022-11-26T11:23:45.685Z,101353.06
2022-11-26T11:26:21.652Z,101354.81
2022-11-26T11:28:54.527Z,101356.59
2022-11-26T11:31:27.321Z,101363.44
2022-11-26T11:34:19.289Z,101357.25
2022-11-26T11:37:25.505Z,101360.72
2022-11-26T11:40:06.244Z,101358.00
2022-11-26T11:42:33.916Z,101362.38
2022-11-26T11:45:04.106Z,101360.63
2022-11-26T11:47:43.409Z,101358.84
2022-11-26T11:50:20.545Z,101364.09
2022-11-26T11:52:59.346Z,101365.09
2022-11-26T11:55:32.737Z,101367.81
2022-11-26T11:58:06.089Z,101365.44
2022-11-26T12:00:51.226Z,101365.50
2022-11-26T12:03:24.548Z,101376.94
2022-11-26T12:06:10.102Z,101375.00
2022-11-26T12:12:21.529Z,101383.69
2022-11-26T12:14:56.175Z,101375.69
2022-11-26T12:17:43.903Z,101372.16
2022-11-26T12:20:34.879Z,101378.31
2022-11-26T12:23:24.269Z,101374.63
2022-11-26T12:26:15.443Z,101380.97
2022-11-26T12:29:02.017Z,101374.78
2022-11-26T12:31:39.402Z,101373.78
2022-11-26T12:34:31.580Z,101377.44
2022-11-26T12:37:04.233Z,101376.72
2022-11-26T12:39:50.507Z,101376.94
2022-11-26T12:42:42.103Z,101384.75
2022-11-26T12:45:28.200Z,101381.97
2022-11-26T12:48:03.226Z,101382.03
2022-11-26T12:50:50.501Z,101392.44
2022-11-26T12:53:44.698Z,101382.00
2022-11-26T12:56:44.261Z,101393.41
2022-11-26T12:59:11.564Z,101396.94
2022-11-26T13:01:39.238Z,101394.28
2022-11-26T13:04:37.230Z,101395.88
2022-11-26T13:07:00.341Z,101393.44
2022-11-26T13:09:52.634Z,101394.59
2022-11-26T13:12:27.429Z,101392.91
2022-11-26T13:15:22.826Z,101396.19
2022-11-26T13:17:51.526Z,101400.53
2022-11-26T13:20:28.344Z,101409.94
2022-11-26T13:23:11.167Z,101412.41
2022-11-26T13:26:15.455Z,101403.75
2022-11-26T13:29:30.874Z,101396.06
2022-11-26T13:32:36.245Z,101407.53
2022-11-26T13:35:12.872Z,101410.25
2022-11-26T13:38:17.808Z,101403.25
2022-11-26T13:41:33.288Z,101406.75
2022-11-26T13:44:20.512Z,101406.94
2022-11-26T13:47:10.284Z,101415.56
2022-11-26T13:49:57.806Z,101412.19
2022-11-26T13:52:51.059Z,101426.06
2022-11-26T14:00:50.077Z,101419.13
2022-11-26T14:03:46.226Z,101417.47
2022-11-26T14:06:14.828Z,101426.06
2022-11-26T14:08:46.556Z,101427.78
2022-11-26T14:11:41.178Z,101427.03
2022-11-26T14:14:23.771Z,101433.22
2022-11-26T14:17:01.837Z,101435.97
2022-11-26T14:19:55.882Z,101440.19
2022-11-26T14:22:23.590Z,101438.38
2022-11-26T14:24:51.379Z,101442.72
2022-11-26T14:27:26.438Z,101448.72
2022-11-26T14:30:02.713Z,101446.31
2022-11-26T14:32:42.570Z,101449.06
2022-11-26T14:35:34.926Z,101458.63
2022-11-26T14:38:06.051Z,101457.88
2022-11-26T14:40:38.649Z,101459.56
2022-11-26T14:43:20.177Z,101451.53
2022-11-26T14:45:59.054Z,101464.81
2022-11-26T14:48:28.663Z,101463.91
2022-11-26T14:50:59.606Z,101466.56
2022-11-26T14:53:32.570Z,101466.69
2022-11-26T14:56:00.966Z,101463.97
2022-11-26T14:58:42.353Z,101469.25
2022-11-26T15:01:15.844Z,101461.44
2022-11-26T15:03:54.084Z,101459.84
2022-11-26T15:06:29.624Z,101469.38
2022-11-26T15:09:27.769Z,101465.56
2022-11-26T15:12:05.130Z,101466.44
2022-11-26T15:14:46.834Z,101458.41
2022-11-26T15:17:18.311Z,101467.03
2022-11-26T15:19:46.886Z,101464.53
2022-11-26T15:22:49.178Z,101461.81
2022-11-26T15:25:28.744Z,101469.78
2022-11-26T15:28:06.674Z,101465.47
2022-11-26T15:30:38.525Z,101471.63
2022-11-26T15:33:13.009Z,101471.66
2022-11-26T15:35:41.511Z,101469.84
2022-11-26T15:38:20.575Z,101463.00
2022-11-26T15:41:05.068Z,101475.09
2022-11-26T15:43:41.988Z,101471.56
2022-11-26T15:46:23.916Z,101473.41
2022-11-26T15:49:20.768Z,101473.50
2022-11-26T15:52:06.080Z,101468.59
2022-11-26T15:55:04.388Z,101473.78
2022-11-26T15:57:35.374Z,101482.28
2022-11-26T16:00:18.422Z,101476.16
2022-11-26T16:02:47.040Z,101479.63
2022-11-26T16:05:28.915Z,101480.38
2022-11-26T16:08:24.759Z,101476.81
2022-11-26T16:10:58.179Z,101483.00
2022-11-26T16:13:34.757Z,101473.56
2022-11-26T16:16:08.419Z,101475.31
2022-11-26T16:18:43.073Z,101471.91
2022-11-26T16:21:18.703Z,101476.19
2022-11-26T16:23:58.721Z,101476.84
2022-11-26T16:26:27.484Z,101484.66
2022-11-26T16:28:55.490Z,101492.50
2022-11-26T16:31:23.358Z,101485.63
2022-11-26T16:33:50.959Z,101484.75
2022-11-26T16:36:30.834Z,101488.31
2022-11-26T16:38:58.384Z,101485.63
2022-11-26T16:41:26.660Z,101489.16
2022-11-26T16:43:54.233Z,101488.16
2022-11-26T16:46:23.843Z,101491.66
2022-11-26T16:48:52.512Z,101490.84
2022-11-26T16:51:21.399Z,101492.63
2022-11-26T16:53:49.200Z,101496.00
2022-11-26T16:56:24.555Z,101499.56
2022-11-26T16:58:53.026Z,101496.91
2022-11-26T17:01:21.328Z,101497.59
2022-11-26T17:03:48.877Z,101497.69
2022-11-26T17:06:26.010Z,101497.88
2022-11-26T17:08:55.893Z,101508.25
2022-11-26T17:11:24.262Z,101504.72
2022-11-26T17:13:52.350Z,101502.25
2022-11-26T17:16:21.659Z,101505.03
2022-11-26T17:18:50.213Z,101504.13
2022-11-26T17:21:17.951Z,101508.50
2022-11-26T17:23:45.580Z,101501.75
2022-11-26T17:26:22.634Z,101500.06
2022-11-26T17:28:50.973Z,101502.63
2022-11-26T17:31:18.790Z,101515.63
2022-11-26T17:33:46.517Z,101508.66
2022-11-26T17:36:17.025Z,101515.53
2022-11-26T17:38:45.624Z,101506.00
2022-11-26T17:41:15.636Z,101514.25
2022-11-26T17:43:43.450Z,101521.13
2022-11-26T17:46:22.133Z,101526.34
2022-11-26T17:48:54.304Z,101512.44
2022-11-26T17:51:24.936Z,101511.59
2022-11-26T17:53:52.665Z,101515.22
2022-11-26T17:56:23.601Z,101517.72
2022-11-26T17:58:51.488Z,101515.19
2022-11-26T18:01:19.600Z,101514.34
2022-11-26T18:03:47.603Z,101518.72
2022-11-26T18:06:18.932Z,101522.22
2022-11-26T18:08:46.668Z,101524.69
2022-11-26T18:11:19.282Z,101528.16
2022-11-26T18:13:47.155Z,101530.69
2022-11-26T18:16:14.832Z,101528.94
2022-11-26T18:18:42.511Z,101524.06
2022-11-26T18:21:12.076Z,101534.50
2022-11-26T18:23:41.415Z,101529.31
2022-11-26T18:26:16.894Z,101534.59
2022-11-26T18:28:44.562Z,101537.19
2022-11-26T18:31:12.356Z,101540.53
2022-11-26T18:33:41.356Z,101540.47
2022-11-26T18:36:09.103Z,101538.88
2022-11-26T18:38:38.012Z,101534.56
2022-11-26T18:41:06.607Z,101541.44
2022-11-26T18:43:37.148Z,101554.66
2022-11-26T18:46:07.039Z,101549.50
2022-11-26T18:48:39.482Z,101554.72
2022-11-26T18:51:07.043Z,101549.34
2022-11-26T18:53:35.364Z,101552.91
2022-11-26T18:56:15.659Z,101544.19
2022-11-26T18:58:43.912Z,101544.28
2022-11-26T19:01:19.565Z,101545.09
2022-11-26T19:03:47.339Z,101544.22
2022-11-26T19:06:17.885Z,101548.75
2022-11-26T19:08:46.628Z,101541.69
2022-11-26T19:11:18.424Z,101550.41
2022-11-26T19:13:46.632Z,101548.75
2022-11-26T19:16:16.894Z,101549.66
2022-11-26T19:18:45.811Z,101551.41
2022-11-26T19:21:33.592Z,101552.22
2022-11-26T19:24:04.651Z,101556.72
2022-11-26T19:26:32.706Z,101555.72
2022-11-26T19:29:02.851Z,101562.69
2022-11-26T19:31:36.107Z,101558.31
2022-11-26T19:34:10.039Z,101563.66
2022-11-26T19:36:37.990Z,101562.78
2022-11-26T19:39:07.410Z,101562.75
2022-11-26T19:41:34.956Z,101565.47
2022-11-26T19:44:05.387Z,101561.97
2022-11-26T19:46:36.761Z,101570.63
2022-11-26T19:49:04.356Z,101576.75
2022-11-26T19:51:31.985Z,101575.09
2022-11-26T19:53:59.574Z,101583.06
2022-11-26T19:56:31.570Z,101579.59
2022-11-26T19:59:02.177Z,101582.28
2022-11-26T20:01:31.764Z,101579.53
2022-11-26T20:04:01.172Z,101586.47
2022-11-26T20:06:30.369Z,101583.88
2022-11-26T20:08:59.151Z,101577.72
2022-11-26T20:11:29.137Z,101581.19
2022-11-26T20:13:57.832Z,101579.47
2022-11-26T20:16:31.142Z,101584.66
2022-11-26T20:19:01.219Z,101588.13
2022-11-26T20:21:32.464Z,101597.75
2022-11-26T20:24:03.190Z,101592.47
2022-11-26T20:26:36.862Z,101597.84
2022-11-26T20:29:08.009Z,101599.56
2022-11-26T20:31:40.534Z,101594.44
2022-11-26T20:34:08.139Z,101597.03
2022-11-26T20:36:35.951Z,101599.69
2022-11-26T20:39:04.403Z,101593.59
2022-11-26T20:41:32.102Z,101598.75
2022-11-26T20:43:59.959Z,101591.81
2022-11-26T20:46:28.729Z,101594.47
2022-11-26T20:48:58.156Z,101595.41
2022-11-26T20:51:25.860Z,101599.03
2022-11-26T20:53:53.727Z,101594.69
2022-11-26T20:56:22.260Z,101598.94
2022-11-26T20:58:51.301Z,101605.91
2022-11-26T21:01:25.624Z,101606.75
2022-11-26T21:03:53.855Z,101605.91
2022-11-26T21:06:29.352Z,101611.19
2022-11-26T21:09:04.076Z,101614.63
2022-11-26T21:11:32.236Z,101608.56
2022-11-26T21:14:01.747Z,101611.25
2022-11-26T21:16:31.123Z,101608.63
2022-11-26T21:18:59.940Z,101605.91
2022-11-26T21:21:29.126Z,101603.25
2022-11-26T21:23:57.943Z,101605.03
2022-11-26T21:26:26.777Z,101603.13
2022-11-26T21:28:57.133Z,101603.19
2022-11-26T21:31:26.577Z,101613.47
2022-11-26T21:34:05.502Z,101601.25
2022-11-26T21:36:34.935Z,101602.09
2022-11-26T21:39:03.983Z,101604.72
2022-11-26T21:41:33.641Z,101605.72
2022-11-26T21:44:04.353Z,101600.56
2022-11-26T21:46:38.147Z,101603.13
2022-11-26T21:49:08.271Z,101609.19
2022-11-26T21:51:36.083Z,101609.19
2022-11-26T21:54:04.037Z,101610.09
2022-11-26T21:56:32.609Z,101598.81
2022-11-26T21:59:01.410Z,101598.00
2022-11-26T22:01:35.978Z,101598.84
2022-11-26T22:04:10.822Z,101603.19
2022-11-26T22:06:39.698Z,101597.22
2022-11-26T22:09:08.652Z,101604.00
2022-11-26T22:11:39.654Z,101598.03
2022-11-26T22:14:08.622Z,101603.38
2022-11-26T22:16:36.737Z,101606.03
2022-11-26T22:19:10.081Z,101607.75
2022-11-26T22:21:40.666Z,101603.31
2022-11-26T22:24:13.710Z,101610.22
2022-11-26T22:26:44.456Z,101610.28
2022-11-26T22:29:13.955Z,101617.25
2022-11-26T22:31:42.143Z,101618.16
2022-11-26T22:34:15.146Z,101615.59
2022-11-26T22:36:44.295Z,101615.47
2022-11-26T22:39:15.072Z,101617.25
2022-11-26T22:41:43.858Z,101619.97
2022-11-26T22:44:12.435Z,101620.91
2022-11-26T22:46:40.778Z,101626.16
2022-11-26T22:49:13.357Z,101615.56
2022-11-26T22:51:43.455Z,101612.91
2022-11-26T22:54:13.487Z,101612.00
2022-11-26T22:56:41.862Z,101614.53
2022-11-26T22:59:13.071Z,101612.84
2022-11-26T23:01:41.649Z,101615.56
2022-11-26T23:04:11.144Z,101619.84
2022-11-26T23:06:39.255Z,101622.56
2022-11-26T23:09:09.220Z,101626.00
2022-11-26T23:11:39.702Z,101633.91
2022-11-26T23:14:09.604Z,101626.94
2022-11-26T23:16:40.656Z,101625.19
2022-11-26T23:19:09.837Z,101627.88
2022-11-26T23:21:40.229Z,101629.78
2022-11-26T23:24:08.698Z,101631.59
2022-11-26T23:26:38.148Z,101635.03
2022-11-26T23:29:06.741Z,101631.63
2022-11-26T23:31:37.145Z,101638.53
2022-11-26T23:34:05.285Z,101643.69
2022-11-26T23:36:33.757Z,101645.34
2022-11-26T23:39:04.667Z,101645.63
2022-11-26T23:41:32.460Z,101648.31
2022-11-26T23:44:00.394Z,101644.72
2022-11-26T23:46:31.293Z,101644.69
2022-11-26T23:48:59.435Z,101653.34
2022-11-26T23:51:29.967Z,101652.38
2022-11-26T23:53:58.436Z,101661.97
2022-11-26T23:56:32.429Z,101656.00
2022-11-26T23:59:02.776Z,101657.88
